Bremer, Iowa
Current Conditions -  °F | °C
As of 12:08 PM on Saturday 22 Nov 2014 (Local Time) from KALO Reporting Station
Haze Haze  
Wind Chill: 35°   Ceiling: 500
Heat Index: 42°   Visibility: 4mi
Dew Point: 41°   Wind: 15mph
Humidity: 96%   Direction: 210°SSW
Pressure: 29.81"   Gusts: NA
Location:  42.787°N, 92.4284°W
Report Text: KALO 221808Z 21013KT 4SM BR OVC005 06/05 A2981 RMK AO2 T00560050 $
Loading
Personal Weather Stations






























Interactive Weather Map New forecast layout! Learn more

10-Day Weather Forecast

Advertisements
Track Severe Weather on mobile